Aviation Digital Data Service (ADDS)

Output produced by METARs form (0334 UTC 30 May 2017)
found at http://www.aviationweather.gov/adds/metars/
 
KDEN 300302Z 3003/3106 17008KT P6SM FEW140 FEW200 
     FM301300 21008KT P6SM SKC 
     FM301600 33006KT P6SM FEW090 
     FM301900 03008KT P6SM FEW070 SCT120 
     FM302200 08010KT P6SM VCTS SCT060CB BKN100 
     FM310100 12008KT P6SM FEW070 BKN120